sensor_id;sensor_type;location;lat;lon;timestamp;P1;durP1;ratioP1;P2;durP2;ratioP2
45694;SDS011;31408;45.468;9.124;2023-04-12T00:01:27;8.15;;;3.88;;
45694;SDS011;31408;45.468;9.124;2023-04-12T00:03:53;9.85;;;5.10;;
45694;SDS011;31408;45.468;9.124;2023-04-12T00:06:18;10.13;;;4.53;;
45694;SDS011;31408;45.468;9.124;2023-04-12T00:08:49;13.15;;;5.80;;
45694;SDS011;31408;45.468;9.124;2023-04-12T00:11:20;8.02;;;5.05;;
45694;SDS011;31408;45.468;9.124;2023-04-12T00:13:45;10.88;;;4.93;;
45694;SDS011;31408;45.468;9.124;2023-04-12T00:16:10;10.02;;;4.40;;
45694;SDS011;31408;45.468;9.124;2023-04-12T00:18:39;15.77;;;4.85;;
45694;SDS011;31408;45.468;9.124;2023-04-12T00:21:06;9.50;;;4.60;;
45694;SDS011;31408;45.468;9.124;2023-04-12T00:23:32;9.45;;;4.53;;
45694;SDS011;31408;45.468;9.124;2023-04-12T00:25:58;10.90;;;4.78;;
45694;SDS011;31408;45.468;9.124;2023-04-12T00:28:23;5.95;;;3.88;;
45694;SDS011;31408;45.468;9.124;2023-04-12T00:30:49;11.75;;;4.57;;
45694;SDS011;31408;45.468;9.124;2023-04-12T00:33:15;6.55;;;4.05;;
45694;SDS011;31408;45.468;9.124;2023-04-12T00:35:40;6.63;;;4.03;;
45694;SDS011;31408;45.468;9.124;2023-04-12T00:38:05;9.40;;;5.28;;
45694;SDS011;31408;45.468;9.124;2023-04-12T00:40:39;5.70;;;3.85;;
45694;SDS011;31408;45.468;9.124;2023-04-12T00:43:05;10.75;;;4.60;;
45694;SDS011;31408;45.468;9.124;2023-04-12T00:45:33;7.40;;;4.00;;
45694;SDS011;31408;45.468;9.124;2023-04-12T00:48:01;11.32;;;4.55;;
45694;SDS011;31408;45.468;9.124;2023-04-12T00:50:26;8.98;;;4.68;;
45694;SDS011;31408;45.468;9.124;2023-04-12T00:52:52;8.02;;;3.80;;
45694;SDS011;31408;45.468;9.124;2023-04-12T00:55:17;8.77;;;3.60;;
45694;SDS011;31408;45.468;9.124;2023-04-12T00:57:43;6.40;;;3.58;;
45694;SDS011;31408;45.468;9.124;2023-04-12T01:00:09;6.15;;;3.08;;
45694;SDS011;31408;45.468;9.124;2023-04-12T01:02:41;6.63;;;3.63;;
45694;SDS011;31408;45.468;9.124;2023-04-12T01:05:11;8.80;;;4.10;;
45694;SDS011;31408;45.468;9.124;2023-04-12T01:15:20;4.32;;;2.95;;
45694;SDS011;31408;45.468;9.124;2023-04-12T01:17:58;7.05;;;4.05;;
45694;SDS011;31408;45.468;9.124;2023-04-12T01:20:36;6.30;;;3.60;;
45694;SDS011;31408;45.468;9.124;2023-04-12T01:28:01;10.07;;;3.90;;
45694;SDS011;31408;45.468;9.124;2023-04-12T01:30:27;6.18;;;3.83;;
45694;SDS011;31408;45.468;9.124;2023-04-12T01:32:53;8.55;;;3.45;;
45694;SDS011;31408;45.468;9.124;2023-04-12T01:35:20;6.30;;;3.50;;
45694;SDS011;31408;45.468;9.124;2023-04-12T01:37:46;8.25;;;3.72;;
45694;SDS011;31408;45.468;9.124;2023-04-12T01:40:14;4.97;;;3.58;;
45694;SDS011;31408;45.468;9.124;2023-04-12T01:42:40;5.05;;;3.08;;
45694;SDS011;31408;45.468;9.124;2023-04-12T01:45:05;6.93;;;3.42;;
45694;SDS011;31408;45.468;9.124;2023-04-12T01:47:31;8.20;;;3.28;;
45694;SDS011;31408;45.468;9.124;2023-04-12T01:52:45;9.18;;;3.17;;
45694;SDS011;31408;45.468;9.124;2023-04-12T01:55:12;6.57;;;3.13;;
45694;SDS011;31408;45.468;9.124;2023-04-12T01:57:39;6.30;;;3.42;;
45694;SDS011;31408;45.468;9.124;2023-04-12T02:00:07;3.95;;;2.70;;
45694;SDS011;31408;45.468;9.124;2023-04-12T02:02:41;6.00;;;3.45;;
45694;SDS011;31408;45.468;9.124;2023-04-12T02:05:06;5.78;;;3.53;;
45694;SDS011;31408;45.468;9.124;2023-04-12T02:07:33;6.70;;;3.65;;
45694;SDS011;31408;45.468;9.124;2023-04-12T02:09:59;7.10;;;3.40;;
45694;SDS011;31408;45.468;9.124;2023-04-12T02:12:24;8.57;;;3.33;;
45694;SDS011;31408;45.468;9.124;2023-04-12T02:14:49;5.63;;;3.25;;
45694;SDS011;31408;45.468;9.124;2023-04-12T02:17:16;6.32;;;3.50;;
45694;SDS011;31408;45.468;9.124;2023-04-12T02:19:42;5.78;;;3.05;;
45694;SDS011;31408;45.468;9.124;2023-04-12T02:22:08;5.95;;;3.47;;
45694;SDS011;31408;45.468;9.124;2023-04-12T02:24:36;5.28;;;3.30;;
45694;SDS011;31408;45.468;9.124;2023-04-12T02:27:01;6.88;;;3.25;;
45694;SDS011;31408;45.468;9.124;2023-04-12T02:29:27;6.82;;;3.17;;
45694;SDS011;31408;45.468;9.124;2023-04-12T02:31:53;8.43;;;3.58;;
45694;SDS011;31408;45.468;9.124;2023-04-12T02:34:20;7.30;;;4.00;;
45694;SDS011;31408;45.468;9.124;2023-04-12T02:36:53;6.65;;;3.65;;
45694;SDS011;31408;45.468;9.124;2023-04-12T02:39:18;5.25;;;3.95;;
45694;SDS011;31408;45.468;9.124;2023-04-12T02:41:47;7.70;;;4.50;;
45694;SDS011;31408;45.468;9.124;2023-04-12T02:44:14;10.32;;;4.75;;
45694;SDS011;31408;45.468;9.124;2023-04-12T02:46:44;8.50;;;4.68;;
45694;SDS011;31408;45.468;9.124;2023-04-12T02:49:09;11.20;;;4.28;;
45694;SDS011;31408;45.468;9.124;2023-04-12T02:51:39;7.38;;;4.35;;
45694;SDS011;31408;45.468;9.124;2023-04-12T02:54:05;8.63;;;3.95;;
45694;SDS011;31408;45.468;9.124;2023-04-12T02:56:45;7.57;;;4.32;;
45694;SDS011;31408;45.468;9.124;2023-04-12T02:59:30;9.02;;;4.18;;
45694;SDS011;31408;45.468;9.124;2023-04-12T03:02:06;8.10;;;4.53;;
45694;SDS011;31408;45.468;9.124;2023-04-12T03:04:32;7.35;;;4.32;;
45694;SDS011;31408;45.468;9.124;2023-04-12T03:06:59;5.22;;;4.07;;
45694;SDS011;31408;45.468;9.124;2023-04-12T03:09:32;8.52;;;4.38;;
45694;SDS011;31408;45.468;9.124;2023-04-12T03:11:57;9.93;;;5.10;;
45694;SDS011;31408;45.468;9.124;2023-04-12T03:14:23;10.50;;;4.53;;
45694;SDS011;31408;45.468;9.124;2023-04-12T03:16:49;11.82;;;5.22;;
45694;SDS011;31408;45.468;9.124;2023-04-12T03:19:17;10.70;;;4.80;;
45694;SDS011;31408;45.468;9.124;2023-04-12T03:21:48;17.63;;;6.50;;
45694;SDS011;31408;45.468;9.124;2023-04-12T03:24:14;10.80;;;5.35;;
45694;SDS011;31408;45.468;9.124;2023-04-12T03:26:40;12.43;;;6.13;;
45694;SDS011;31408;45.468;9.124;2023-04-12T03:29:13;14.60;;;7.70;;
45694;SDS011;31408;45.468;9.124;2023-04-12T03:31:40;17.25;;;8.02;;
45694;SDS011;31408;45.468;9.124;2023-04-12T03:34:07;14.55;;;7.07;;
45694;SDS011;31408;45.468;9.124;2023-04-12T03:36:40;13.70;;;7.45;;
45694;SDS011;31408;45.468;9.124;2023-04-12T03:39:15;22.50;;;9.15;;
45694;SDS011;31408;45.468;9.124;2023-04-12T03:41:41;16.80;;;7.57;;
45694;SDS011;31408;45.468;9.124;2023-04-12T03:44:06;16.23;;;7.85;;
45694;SDS011;31408;45.468;9.124;2023-04-12T03:46:33;24.60;;;7.72;;
45694;SDS011;31408;45.468;9.124;2023-04-12T03:49:03;18.02;;;7.55;;
45694;SDS011;31408;45.468;9.124;2023-04-12T03:51:30;17.23;;;7.40;;
45694;SDS011;31408;45.468;9.124;2023-04-12T03:53:59;15.60;;;6.40;;
45694;SDS011;31408;45.468;9.124;2023-04-12T03:56:28;19.15;;;8.30;;
45694;SDS011;31408;45.468;9.124;2023-04-12T03:58:55;14.20;;;6.93;;
45694;SDS011;31408;45.468;9.124;2023-04-12T04:01:21;13.60;;;6.95;;
45694;SDS011;31408;45.468;9.124;2023-04-12T04:03:49;15.32;;;8.27;;
45694;SDS011;31408;45.468;9.124;2023-04-12T04:06:33;16.15;;;6.82;;
45694;SDS011;31408;45.468;9.124;2023-04-12T04:09:01;15.20;;;6.95;;
45694;SDS011;31408;45.468;9.124;2023-04-12T04:11:28;18.50;;;7.72;;
45694;SDS011;31408;45.468;9.124;2023-04-12T04:14:02;13.88;;;6.25;;
45694;SDS011;31408;45.468;9.124;2023-04-12T04:16:28;16.42;;;7.05;;
45694;SDS011;31408;45.468;9.124;2023-04-12T04:18:55;17.48;;;7.18;;
45694;SDS011;31408;45.468;9.124;2023-04-12T04:21:22;15.05;;;7.03;;
45694;SDS011;31408;45.468;9.124;2023-04-12T04:23:53;15.60;;;7.18;;
45694;SDS011;31408;45.468;9.124;2023-04-12T04:26:19;19.23;;;8.13;;
45694;SDS011;31408;45.468;9.124;2023-04-12T04:28:54;17.98;;;6.18;;
45694;SDS011;31408;45.468;9.124;2023-04-12T04:31:29;14.02;;;6.85;;
45694;SDS011;31408;45.468;9.124;2023-04-12T04:34:03;14.05;;;6.55;;
45694;SDS011;31408;45.468;9.124;2023-04-12T04:36:34;14.70;;;7.05;;
45694;SDS011;31408;45.468;9.124;2023-04-12T04:39:00;17.10;;;6.30;;
45694;SDS011;31408;45.468;9.124;2023-04-12T04:41:46;12.43;;;5.53;;
45694;SDS011;31408;45.468;9.124;2023-04-12T04:44:25;15.80;;;6.15;;
45694;SDS011;31408;45.468;9.124;2023-04-12T04:46:53;16.42;;;7.15;;
45694;SDS011;31408;45.468;9.124;2023-04-12T04:49:18;20.33;;;7.47;;
45694;SDS011;31408;45.468;9.124;2023-04-12T04:51:44;12.60;;;5.97;;
45694;SDS011;31408;45.468;9.124;2023-04-12T04:54:13;17.85;;;6.63;;
45694;SDS011;31408;45.468;9.124;2023-04-12T04:56:40;20.20;;;7.18;;
45694;SDS011;31408;45.468;9.124;2023-04-12T04:59:07;16.83;;;6.07;;
45694;SDS011;31408;45.468;9.124;2023-04-12T05:01:33;18.63;;;7.10;;
45694;SDS011;31408;45.468;9.124;2023-04-12T05:04:02;19.05;;;6.70;;
45694;SDS011;31408;45.468;9.124;2023-04-12T05:06:27;18.13;;;6.85;;
45694;SDS011;31408;45.468;9.124;2023-04-12T05:08:54;22.00;;;7.18;;
45694;SDS011;31408;45.468;9.124;2023-04-12T05:11:21;17.05;;;6.30;;
45694;SDS011;31408;45.468;9.124;2023-04-12T05:13:47;18.05;;;7.15;;
45694;SDS011;31408;45.468;9.124;2023-04-12T05:16:12;18.85;;;6.88;;
45694;SDS011;31408;45.468;9.124;2023-04-12T05:18:38;18.52;;;7.28;;
45694;SDS011;31408;45.468;9.124;2023-04-12T05:21:03;17.38;;;6.35;;
45694;SDS011;31408;45.468;9.124;2023-04-12T05:23:33;15.98;;;6.22;;
45694;SDS011;31408;45.468;9.124;2023-04-12T05:25:59;17.60;;;6.85;;
45694;SDS011;31408;45.468;9.124;2023-04-12T05:28:25;18.10;;;6.88;;
45694;SDS011;31408;45.468;9.124;2023-04-12T05:30:51;13.68;;;5.88;;
45694;SDS011;31408;45.468;9.124;2023-04-12T05:33:20;17.70;;;6.65;;
45694;SDS011;31408;45.468;9.124;2023-04-12T05:35:47;16.20;;;6.18;;
45694;SDS011;31408;45.468;9.124;2023-04-12T05:38:12;15.23;;;6.95;;
45694;SDS011;31408;45.468;9.124;2023-04-12T05:40:41;17.40;;;6.35;;
45694;SDS011;31408;45.468;9.124;2023-04-12T05:43:08;15.32;;;6.90;;
45694;SDS011;31408;45.468;9.124;2023-04-12T05:45:37;11.90;;;6.05;;
45694;SDS011;31408;45.468;9.124;2023-04-12T05:48:02;15.02;;;6.32;;
45694;SDS011;31408;45.468;9.124;2023-04-12T05:50:28;17.27;;;5.97;;
45694;SDS011;31408;45.468;9.124;2023-04-12T05:52:54;20.55;;;7.57;;
45694;SDS011;31408;45.468;9.124;2023-04-12T05:55:24;14.93;;;6.60;;
45694;SDS011;31408;45.468;9.124;2023-04-12T05:57:50;18.17;;;7.13;;
45694;SDS011;31408;45.468;9.124;2023-04-12T06:00:18;17.70;;;6.93;;
45694;SDS011;31408;45.468;9.124;2023-04-12T06:02:44;14.85;;;5.93;;
45694;SDS011;31408;45.468;9.124;2023-04-12T06:05:10;19.80;;;7.05;;
45694;SDS011;31408;45.468;9.124;2023-04-12T06:07:37;12.68;;;5.97;;
45694;SDS011;31408;45.468;9.124;2023-04-12T06:10:03;14.57;;;6.22;;
45694;SDS011;31408;45.468;9.124;2023-04-12T06:12:29;15.15;;;6.78;;
45694;SDS011;31408;45.468;9.124;2023-04-12T06:14:54;15.13;;;6.32;;
45694;SDS011;31408;45.468;9.124;2023-04-12T06:17:20;15.18;;;5.93;;
45694;SDS011;31408;45.468;9.124;2023-04-12T06:19:46;15.40;;;6.57;;
45694;SDS011;31408;45.468;9.124;2023-04-12T06:22:11;13.77;;;5.78;;
45694;SDS011;31408;45.468;9.124;2023-04-12T06:24:39;16.52;;;6.80;;
45694;SDS011;31408;45.468;9.124;2023-04-12T06:27:05;17.08;;;6.32;;
45694;SDS011;31408;45.468;9.124;2023-04-12T06:29:30;17.00;;;6.38;;
45694;SDS011;31408;45.468;9.124;2023-04-12T06:31:56;15.80;;;6.63;;
45694;SDS011;31408;45.468;9.124;2023-04-12T06:34:21;15.98;;;6.72;;
45694;SDS011;31408;45.468;9.124;2023-04-12T06:36:48;16.83;;;6.35;;
45694;SDS011;31408;45.468;9.124;2023-04-12T06:39:13;16.92;;;7.50;;
45694;SDS011;31408;45.468;9.124;2023-04-12T06:41:40;16.80;;;7.13;;
45694;SDS011;31408;45.468;9.124;2023-04-12T06:44:07;17.40;;;6.75;;
45694;SDS011;31408;45.468;9.124;2023-04-12T06:46:33;13.45;;;6.32;;
45694;SDS011;31408;45.468;9.124;2023-04-12T06:48:58;14.23;;;6.45;;
45694;SDS011;31408;45.468;9.124;2023-04-12T06:51:24;16.88;;;6.55;;
45694;SDS011;31408;45.468;9.124;2023-04-12T06:53:49;18.55;;;6.70;;
45694;SDS011;31408;45.468;9.124;2023-04-12T06:56:14;16.38;;;6.97;;
45694;SDS011;31408;45.468;9.124;2023-04-12T06:58:39;17.98;;;6.68;;
45694;SDS011;31408;45.468;9.124;2023-04-12T07:01:05;12.40;;;6.20;;
45694;SDS011;31408;45.468;9.124;2023-04-12T07:03:31;17.75;;;7.40;;
45694;SDS011;31408;45.468;9.124;2023-04-12T07:05:59;12.32;;;5.80;;
45694;SDS011;31408;45.468;9.124;2023-04-12T07:08:26;15.70;;;6.75;;
45694;SDS011;31408;45.468;9.124;2023-04-12T07:10:52;15.98;;;7.05;;
45694;SDS011;31408;45.468;9.124;2023-04-12T07:13:18;20.83;;;7.40;;
45694;SDS011;31408;45.468;9.124;2023-04-12T07:15:43;11.13;;;5.97;;
45694;SDS011;31408;45.468;9.124;2023-04-12T07:18:08;18.63;;;7.72;;
45694;SDS011;31408;45.468;9.124;2023-04-12T07:20:34;14.20;;;6.82;;
45694;SDS011;31408;45.468;9.124;2023-04-12T07:22:59;20.02;;;6.82;;
45694;SDS011;31408;45.468;9.124;2023-04-12T07:25:24;17.40;;;8.00;;
45694;SDS011;31408;45.468;9.124;2023-04-12T07:27:50;17.65;;;6.72;;
45694;SDS011;31408;45.468;9.124;2023-04-12T07:30:15;13.02;;;5.95;;
45694;SDS011;31408;45.468;9.124;2023-04-12T07:32:40;19.63;;;7.25;;
45694;SDS011;31408;45.468;9.124;2023-04-12T07:35:06;20.40;;;7.30;;
45694;SDS011;31408;45.468;9.124;2023-04-12T07:37:31;20.00;;;7.32;;
45694;SDS011;31408;45.468;9.124;2023-04-12T07:39:57;19.23;;;7.28;;
45694;SDS011;31408;45.468;9.124;2023-04-12T07:42:22;17.88;;;7.68;;
45694;SDS011;31408;45.468;9.124;2023-04-12T07:44:47;17.02;;;6.43;;
45694;SDS011;31408;45.468;9.124;2023-04-12T07:47:13;21.58;;;7.93;;
45694;SDS011;31408;45.468;9.124;2023-04-12T07:49:38;16.10;;;7.00;;
45694;SDS011;31408;45.468;9.124;2023-04-12T07:52:03;20.30;;;7.70;;
45694;SDS011;31408;45.468;9.124;2023-04-12T07:54:29;15.27;;;6.90;;
45694;SDS011;31408;45.468;9.124;2023-04-12T07:57:00;15.88;;;7.53;;
45694;SDS011;31408;45.468;9.124;2023-04-12T07:59:29;15.35;;;6.97;;
45694;SDS011;31408;45.468;9.124;2023-04-12T08:01:55;15.45;;;7.18;;
45694;SDS011;31408;45.468;9.124;2023-04-12T08:04:20;15.95;;;6.93;;
45694;SDS011;31408;45.468;9.124;2023-04-12T08:06:46;18.15;;;6.63;;
45694;SDS011;31408;45.468;9.124;2023-04-12T08:09:11;16.05;;;7.78;;
45694;SDS011;31408;45.468;9.124;2023-04-12T08:11:36;16.58;;;6.70;;
45694;SDS011;31408;45.468;9.124;2023-04-12T08:14:02;15.35;;;5.95;;
45694;SDS011;31408;45.468;9.124;2023-04-12T08:16:27;18.95;;;6.45;;
45694;SDS011;31408;45.468;9.124;2023-04-12T08:18:52;15.48;;;7.30;;
45694;SDS011;31408;45.468;9.124;2023-04-12T08:21:18;14.38;;;6.47;;
45694;SDS011;31408;45.468;9.124;2023-04-12T08:23:43;19.58;;;7.50;;
45694;SDS011;31408;45.468;9.124;2023-04-12T08:26:08;18.50;;;7.10;;
45694;SDS011;31408;45.468;9.124;2023-04-12T08:28:34;16.35;;;6.82;;
45694;SDS011;31408;45.468;9.124;2023-04-12T08:30:59;18.77;;;7.18;;
45694;SDS011;31408;45.468;9.124;2023-04-12T08:33:25;14.23;;;6.47;;
45694;SDS011;31408;45.468;9.124;2023-04-12T08:35:50;17.05;;;6.78;;
45694;SDS011;31408;45.468;9.124;2023-04-12T08:38:17;16.25;;;6.60;;
45694;SDS011;31408;45.468;9.124;2023-04-12T08:40:42;16.38;;;7.57;;
45694;SDS011;31408;45.468;9.124;2023-04-12T08:43:08;14.65;;;6.93;;
45694;SDS011;31408;45.468;9.124;2023-04-12T08:45:35;19.10;;;6.88;;
45694;SDS011;31408;45.468;9.124;2023-04-12T08:48:01;20.90;;;7.63;;
45694;SDS011;31408;45.468;9.124;2023-04-12T08:50:28;14.50;;;6.80;;
45694;SDS011;31408;45.468;9.124;2023-04-12T08:52:53;17.20;;;7.03;;
45694;SDS011;31408;45.468;9.124;2023-04-12T08:55:20;16.98;;;7.35;;
45694;SDS011;31408;45.468;9.124;2023-04-12T08:57:45;20.65;;;6.90;;
45694;SDS011;31408;45.468;9.124;2023-04-12T09:00:12;15.00;;;7.07;;
45694;SDS011;31408;45.468;9.124;2023-04-12T09:02:38;16.05;;;6.72;;
45694;SDS011;31408;45.468;9.124;2023-04-12T09:05:07;15.18;;;7.03;;
45694;SDS011;31408;45.468;9.124;2023-04-12T09:07:34;16.10;;;6.63;;
45694;SDS011;31408;45.468;9.124;2023-04-12T09:09:59;13.82;;;6.28;;
45694;SDS011;31408;45.468;9.124;2023-04-12T09:12:25;19.10;;;6.75;;
45694;SDS011;31408;45.468;9.124;2023-04-12T09:15:04;12.80;;;6.47;;
45694;SDS011;31408;45.468;9.124;2023-04-12T09:17:32;16.10;;;6.78;;
45694;SDS011;31408;45.468;9.124;2023-04-12T09:20:01;16.77;;;5.88;;
45694;SDS011;31408;45.468;9.124;2023-04-12T09:22:31;13.95;;;6.03;;
45694;SDS011;31408;45.468;9.124;2023-04-12T09:24:56;13.50;;;5.97;;
45694;SDS011;31408;45.468;9.124;2023-04-12T09:27:22;14.63;;;6.05;;
45694;SDS011;31408;45.468;9.124;2023-04-12T09:29:47;17.27;;;6.57;;
45694;SDS011;31408;45.468;9.124;2023-04-12T09:32:25;20.48;;;6.38;;
45694;SDS011;31408;45.468;9.124;2023-04-12T09:34:55;15.23;;;6.32;;
45694;SDS011;31408;45.468;9.124;2023-04-12T09:37:21;15.00;;;6.60;;
45694;SDS011;31408;45.468;9.124;2023-04-12T09:39:47;12.35;;;6.30;;
45694;SDS011;31408;45.468;9.124;2023-04-12T09:42:22;11.57;;;5.43;;
45694;SDS011;31408;45.468;9.124;2023-04-12T09:44:47;16.60;;;6.90;;
45694;SDS011;31408;45.468;9.124;2023-04-12T09:47:13;12.43;;;6.63;;
45694;SDS011;31408;45.468;9.124;2023-04-12T09:49:42;16.20;;;6.97;;
45694;SDS011;31408;45.468;9.124;2023-04-12T09:52:08;17.25;;;6.82;;
45694;SDS011;31408;45.468;9.124;2023-04-12T09:54:39;9.57;;;5.40;;
45694;SDS011;31408;45.468;9.124;2023-04-12T09:57:06;12.02;;;6.03;;
45694;SDS011;31408;45.468;9.124;2023-04-12T09:59:34;14.73;;;5.63;;
45694;SDS011;31408;45.468;9.124;2023-04-12T10:02:00;16.80;;;7.50;;
45694;SDS011;31408;45.468;9.124;2023-04-12T10:04:27;15.77;;;6.65;;
45694;SDS011;31408;45.468;9.124;2023-04-12T10:06:54;12.13;;;5.70;;
45694;SDS011;31408;45.468;9.124;2023-04-12T10:09:19;12.52;;;6.25;;
45694;SDS011;31408;45.468;9.124;2023-04-12T10:11:44;13.65;;;6.38;;
45694;SDS011;31408;45.468;9.124;2023-04-12T10:14:10;11.50;;;5.45;;
45694;SDS011;31408;45.468;9.124;2023-04-12T10:16:36;20.08;;;7.57;;
45694;SDS011;31408;45.468;9.124;2023-04-12T10:19:04;13.52;;;6.00;;
45694;SDS011;31408;45.468;9.124;2023-04-12T10:21:29;18.38;;;7.60;;
45694;SDS011;31408;45.468;9.124;2023-04-12T10:23:56;12.45;;;6.97;;
45694;SDS011;31408;45.468;9.124;2023-04-12T10:26:21;12.65;;;6.60;;
45694;SDS011;31408;45.468;9.124;2023-04-12T10:29:18;15.82;;;6.38;;
45694;SDS011;31408;45.468;9.124;2023-04-12T10:31:37;12.40;;;5.63;;
45694;SDS011;31408;45.468;9.124;2023-04-12T10:34:02;16.33;;;6.35;;
45694;SDS011;31408;45.468;9.124;2023-04-12T10:39:13;14.45;;;5.95;;
45694;SDS011;31408;45.468;9.124;2023-04-12T10:41:41;8.07;;;4.93;;
45694;SDS011;31408;45.468;9.124;2023-04-12T10:44:25;12.70;;;5.65;;
45694;SDS011;31408;45.468;9.124;2023-04-12T10:46:51;11.65;;;5.20;;
45694;SDS011;31408;45.468;9.124;2023-04-12T10:49:16;15.50;;;6.78;;
45694;SDS011;31408;45.468;9.124;2023-04-12T10:56:53;15.10;;;6.55;;
45694;SDS011;31408;45.468;9.124;2023-04-12T11:02:20;14.80;;;5.60;;
45694;SDS011;31408;45.468;9.124;2023-04-12T11:05:03;13.13;;;6.53;;
45694;SDS011;31408;45.468;9.124;2023-04-12T11:07:47;11.88;;;6.43;;
45694;SDS011;31408;45.468;9.124;2023-04-12T11:10:56;11.75;;;5.75;;
45694;SDS011;31408;45.468;9.124;2023-04-12T11:13:35;13.88;;;6.28;;
45694;SDS011;31408;45.468;9.124;2023-04-12T11:16:02;14.52;;;6.43;;
45694;SDS011;31408;45.468;9.124;2023-04-12T11:18:29;13.95;;;6.13;;
45694;SDS011;31408;45.468;9.124;2023-04-12T11:20:55;17.17;;;7.22;;
45694;SDS011;31408;45.468;9.124;2023-04-12T11:23:22;13.13;;;6.75;;
45694;SDS011;31408;45.468;9.124;2023-04-12T11:25:50;15.07;;;6.38;;
45694;SDS011;31408;45.468;9.124;2023-04-12T11:28:17;17.33;;;6.28;;
45694;SDS011;31408;45.468;9.124;2023-04-12T11:35:56;15.07;;;6.65;;
45694;SDS011;31408;45.468;9.124;2023-04-12T11:38:21;16.80;;;7.35;;
45694;SDS011;31408;45.468;9.124;2023-04-12T11:40:47;15.23;;;7.60;;
45694;SDS011;31408;45.468;9.124;2023-04-12T11:43:17;14.88;;;6.88;;
45694;SDS011;31408;45.468;9.124;2023-04-12T11:45:42;15.85;;;7.70;;
45694;SDS011;31408;45.468;9.124;2023-04-12T11:48:08;14.02;;;6.45;;
45694;SDS011;31408;45.468;9.124;2023-04-12T11:50:34;14.57;;;6.82;;
45694;SDS011;31408;45.468;9.124;2023-04-12T11:53:11;16.13;;;7.32;;
45694;SDS011;31408;45.468;9.124;2023-04-12T11:55:36;15.02;;;7.50;;
45694;SDS011;31408;45.468;9.124;2023-04-12T11:58:01;15.63;;;6.82;;
45694;SDS011;31408;45.468;9.124;2023-04-12T12:00:27;13.10;;;6.72;;
45694;SDS011;31408;45.468;9.124;2023-04-12T12:02:55;15.88;;;7.22;;
45694;SDS011;31408;45.468;9.124;2023-04-12T12:05:20;14.15;;;6.07;;
45694;SDS011;31408;45.468;9.124;2023-04-12T12:07:46;28.02;;;9.90;;
45694;SDS011;31408;45.468;9.124;2023-04-12T12:10:11;42.50;;;18.33;;
45694;SDS011;31408;45.468;9.124;2023-04-12T12:12:37;29.90;;;12.07;;
45694;SDS011;31408;45.468;9.124;2023-04-12T12:15:02;16.75;;;7.38;;
45694;SDS011;31408;45.468;9.124;2023-04-12T12:17:27;16.85;;;7.05;;
45694;SDS011;31408;45.468;9.124;2023-04-12T12:19:55;14.35;;;6.18;;
45694;SDS011;31408;45.468;9.124;2023-04-12T12:22:20;12.57;;;6.10;;
45694;SDS011;31408;45.468;9.124;2023-04-12T12:24:48;14.05;;;6.20;;
45694;SDS011;31408;45.468;9.124;2023-04-12T12:27:18;12.30;;;6.20;;
45694;SDS011;31408;45.468;9.124;2023-04-12T12:29:47;16.33;;;6.50;;
45694;SDS011;31408;45.468;9.124;2023-04-12T12:32:12;14.20;;;6.65;;
45694;SDS011;31408;45.468;9.124;2023-04-12T12:34:39;15.43;;;6.28;;
45694;SDS011;31408;45.468;9.124;2023-04-12T12:37:09;12.63;;;6.30;;
45694;SDS011;31408;45.468;9.124;2023-04-12T12:39:36;16.77;;;6.97;;
45694;SDS011;31408;45.468;9.124;2023-04-12T12:42:01;12.50;;;4.82;;
45694;SDS011;31408;45.468;9.124;2023-04-12T12:44:29;13.45;;;5.93;;
45694;SDS011;31408;45.468;9.124;2023-04-12T12:46:57;15.07;;;6.55;;
45694;SDS011;31408;45.468;9.124;2023-04-12T12:49:22;14.95;;;6.28;;
45694;SDS011;31408;45.468;9.124;2023-04-12T12:51:48;11.35;;;5.70;;
45694;SDS011;31408;45.468;9.124;2023-04-12T12:54:15;14.88;;;5.40;;
45694;SDS011;31408;45.468;9.124;2023-04-12T12:56:40;15.43;;;7.30;;
45694;SDS011;31408;45.468;9.124;2023-04-12T12:59:05;13.23;;;6.22;;
45694;SDS011;31408;45.468;9.124;2023-04-12T13:01:31;15.57;;;6.00;;
45694;SDS011;31408;45.468;9.124;2023-04-12T13:03:56;14.43;;;5.95;;
45694;SDS011;31408;45.468;9.124;2023-04-12T13:06:22;12.50;;;5.85;;
45694;SDS011;31408;45.468;9.124;2023-04-12T13:08:49;12.90;;;5.25;;
45694;SDS011;31408;45.468;9.124;2023-04-12T13:11:16;12.32;;;5.82;;
45694;SDS011;31408;45.468;9.124;2023-04-12T13:13:41;9.50;;;5.13;;
45694;SDS011;31408;45.468;9.124;2023-04-12T13:16:07;12.20;;;5.80;;
45694;SDS011;31408;45.468;9.124;2023-04-12T13:18:32;10.35;;;4.93;;
45694;SDS011;31408;45.468;9.124;2023-04-12T13:20:57;11.90;;;5.13;;
45694;SDS011;31408;45.468;9.124;2023-04-12T13:23:23;11.52;;;5.90;;
45694;SDS011;31408;45.468;9.124;2023-04-12T13:25:48;16.35;;;6.13;;
45694;SDS011;31408;45.468;9.124;2023-04-12T13:28:13;12.77;;;6.05;;
45694;SDS011;31408;45.468;9.124;2023-04-12T13:30:46;13.50;;;6.28;;
45694;SDS011;31408;45.468;9.124;2023-04-12T13:33:12;14.00;;;6.30;;
45694;SDS011;31408;45.468;9.124;2023-04-12T13:35:38;12.85;;;5.95;;
45694;SDS011;31408;45.468;9.124;2023-04-12T13:38:03;16.90;;;6.28;;
45694;SDS011;31408;45.468;9.124;2023-04-12T13:40:29;12.02;;;5.35;;
45694;SDS011;31408;45.468;9.124;2023-04-12T13:42:54;17.23;;;6.10;;
45694;SDS011;31408;45.468;9.124;2023-04-12T13:45:19;12.27;;;5.30;;
45694;SDS011;31408;45.468;9.124;2023-04-12T13:47:45;14.32;;;5.05;;
45694;SDS011;31408;45.468;9.124;2023-04-12T13:50:10;11.50;;;5.75;;
45694;SDS011;31408;45.468;9.124;2023-04-12T13:52:35;15.10;;;7.35;;
45694;SDS011;31408;45.468;9.124;2023-04-12T13:55:01;11.43;;;5.80;;
45694;SDS011;31408;45.468;9.124;2023-04-12T13:57:28;14.88;;;6.60;;
45694;SDS011;31408;45.468;9.124;2023-04-12T13:59:59;11.50;;;5.50;;
45694;SDS011;31408;45.468;9.124;2023-04-12T14:02:24;15.45;;;5.65;;
45694;SDS011;31408;45.468;9.124;2023-04-12T14:04:50;12.23;;;5.13;;
45694;SDS011;31408;45.468;9.124;2023-04-12T14:07:19;13.80;;;5.82;;
45694;SDS011;31408;45.468;9.124;2023-04-12T14:09:44;18.02;;;6.72;;
45694;SDS011;31408;45.468;9.124;2023-04-12T14:12:10;14.82;;;6.18;;
45694;SDS011;31408;45.468;9.124;2023-04-12T14:14:35;14.18;;;6.45;;
45694;SDS011;31408;45.468;9.124;2023-04-12T14:17:00;13.35;;;6.55;;
45694;SDS011;31408;45.468;9.124;2023-04-12T14:19:27;16.23;;;6.70;;
45694;SDS011;31408;45.468;9.124;2023-04-12T14:21:52;10.93;;;5.65;;
45694;SDS011;31408;45.468;9.124;2023-04-12T14:24:18;18.52;;;6.82;;
45694;SDS011;31408;45.468;9.124;2023-04-12T14:26:44;14.20;;;6.50;;
45694;SDS011;31408;45.468;9.124;2023-04-12T14:29:10;17.42;;;7.53;;
45694;SDS011;31408;45.468;9.124;2023-04-12T14:31:36;13.93;;;5.63;;
45694;SDS011;31408;45.468;9.124;2023-04-12T14:34:02;15.68;;;5.60;;
45694;SDS011;31408;45.468;9.124;2023-04-12T14:36:27;11.90;;;5.28;;
45694;SDS011;31408;45.468;9.124;2023-04-12T14:38:52;10.95;;;5.28;;
45694;SDS011;31408;45.468;9.124;2023-04-12T14:41:18;13.32;;;5.93;;
45694;SDS011;31408;45.468;9.124;2023-04-12T14:43:43;13.57;;;6.53;;
45694;SDS011;31408;45.468;9.124;2023-04-12T14:46:10;14.70;;;6.53;;
45694;SDS011;31408;45.468;9.124;2023-04-12T14:48:35;13.77;;;6.03;;
45694;SDS011;31408;45.468;9.124;2023-04-12T14:51:01;17.75;;;7.43;;
45694;SDS011;31408;45.468;9.124;2023-04-12T14:53:27;13.13;;;5.93;;
45694;SDS011;31408;45.468;9.124;2023-04-12T14:55:53;22.15;;;7.50;;
45694;SDS011;31408;45.468;9.124;2023-04-12T14:58:18;11.82;;;6.05;;
45694;SDS011;31408;45.468;9.124;2023-04-12T15:00:43;12.65;;;6.07;;
45694;SDS011;31408;45.468;9.124;2023-04-12T15:03:09;15.75;;;7.03;;
45694;SDS011;31408;45.468;9.124;2023-04-12T15:05:34;11.02;;;6.13;;
45694;SDS011;31408;45.468;9.124;2023-04-12T15:07:59;12.63;;;6.00;;